Terminal Aerodrome Forecast
Issued by NWS Detroit/Pontiac, MI

Home | Current Version | Previous Version | Text Only | Print | Product List | Glossary On
Versions: 1 2 3 4 5 6 7 8 9 10 11 12 13 14 15 16 17 18 19 20 21 22 23 24 25 26
000
FTUS43 KDTX 031120
TAFDTW
TAF
KDTW 031120Z 0312/0418 12006KT P6SM BKN050 OVC100
     FM031300 13010KT 5SM -SN BR SCT025 OVC045
     FM031500 14012KT 1SM -SN BR OVC015
     FM031700 15012KT 2SM -FZRA BR BKN008 OVC015
     FM032000 17013KT 3SM -RA BR OVC008
     FM032200 22013KT 2SM -DZ BR OVC007
     FM040100 25013KT 6SM BR OVC015
     FM040600 28010KT P6SM SCT025 BKN045=

USA.gov is the U.S. government's official web portal to all federal, state and local government web resources and services.